createdAt,value
2023-02-09T00:00:11.957Z,41.93
2023-02-09T00:03:18.561Z,42.06
2023-02-09T00:06:23.802Z,42.25
2023-02-09T00:09:26.705Z,42.30
2023-02-09T00:12:46.921Z,42.40
2023-02-09T00:15:52.584Z,42.37
2023-02-09T00:18:57.194Z,42.48
2023-02-09T00:22:00.208Z,42.30
2023-02-09T00:25:03.099Z,42.30
2023-02-09T00:28:06.128Z,42.27
2023-02-09T00:31:12.821Z,42.08
2023-02-09T00:34:17.104Z,42.16
2023-02-09T00:37:19.922Z,42.15
2023-02-09T00:40:22.791Z,42.06
2023-02-09T00:43:25.631Z,42.10
2023-02-09T00:46:30.317Z,42.03
2023-02-09T00:49:34.442Z,42.03
2023-02-09T00:52:37.263Z,42.31
2023-02-09T00:55:40.117Z,42.33
2023-02-09T00:58:43.705Z,42.32
2023-02-09T01:01:47.987Z,42.38
2023-02-09T01:04:51.327Z,42.58
2023-02-09T01:07:54.432Z,42.12
2023-02-09T01:10:57.416Z,42.39
2023-02-09T01:14:02.477Z,42.36
2023-02-09T01:17:07.756Z,42.35
2023-02-09T01:20:11.659Z,42.31
2023-02-09T01:23:14.527Z,42.56
2023-02-09T01:26:18.685Z,42.72
2023-02-09T01:29:22.165Z,42.72
2023-02-09T01:32:26.335Z,42.81
2023-02-09T01:35:31.757Z,42.73
2023-02-09T01:38:35.167Z,42.68
2023-02-09T01:41:38.311Z,42.65
2023-02-09T01:45:07.057Z,42.63
2023-02-09T01:48:11.754Z,42.66
2023-02-09T01:51:14.914Z,42.66
2023-02-09T01:54:22.067Z,42.40
2023-02-09T01:57:28.338Z,42.56
2023-02-09T02:00:31.355Z,42.63
2023-02-09T02:03:35.712Z,42.54
2023-02-09T02:06:38.962Z,42.78
2023-02-09T02:09:43.290Z,42.76
2023-02-09T02:12:46.521Z,42.67
2023-02-09T02:15:59.329Z,42.66
2023-02-09T02:19:22.944Z,42.72
2023-02-09T02:22:45.351Z,42.65
2023-02-09T02:26:43.213Z,42.74
2023-02-09T02:30:17.593Z,42.72
2023-02-09T02:33:34.068Z,42.52
2023-02-09T02:36:43.220Z,42.51
2023-02-09T02:39:53.035Z,42.51
2023-02-09T02:43:03.481Z,42.58
2023-02-09T02:46:11.118Z,42.65
2023-02-09T02:49:22.548Z,42.73
2023-02-09T02:52:25.738Z,42.84
2023-02-09T02:55:33.128Z,42.84
2023-02-09T02:58:40.162Z,42.93
2023-02-09T03:01:50.771Z,42.70
2023-02-09T03:04:57.864Z,42.70
2023-02-09T03:08:00.725Z,42.74
2023-02-09T03:11:03.644Z,42.74
2023-02-09T03:14:19.840Z,42.68
2023-02-09T03:17:36.698Z,42.62
2023-02-09T03:20:44.702Z,42.60
2023-02-09T03:23:55.659Z,42.57
2023-02-09T03:27:03.314Z,42.63
2023-02-09T03:30:12.594Z,42.70
2023-02-09T03:33:21.038Z,42.69
2023-02-09T03:36:26.817Z,42.61
2023-02-09T03:39:29.676Z,42.61
2023-02-09T03:42:32.629Z,42.69
2023-02-09T03:45:35.513Z,42.54
2023-02-09T03:48:38.512Z,42.54
2023-02-09T03:51:42.934Z,42.61
2023-02-09T03:54:45.748Z,42.64
2023-02-09T03:57:48.707Z,42.53
2023-02-09T04:00:51.675Z,42.58
2023-02-09T04:03:54.583Z,42.46
2023-02-09T04:06:58.961Z,42.55
2023-02-09T04:10:01.791Z,42.46
2023-02-09T04:13:04.600Z,42.49
2023-02-09T04:16:08.075Z,42.38
2023-02-09T04:19:11.324Z,42.59
2023-02-09T04:22:15.487Z,42.55
2023-02-09T04:25:20.121Z,42.41
2023-02-09T04:28:22.943Z,42.52
2023-02-09T04:31:26.186Z,42.49
2023-02-09T04:34:29.165Z,42.46
2023-02-09T04:37:33.351Z,42.50
2023-02-09T04:40:36.299Z,42.60
2023-02-09T04:43:39.164Z,42.51
2023-02-09T04:46:43.646Z,42.50
2023-02-09T04:49:47.675Z,42.49
2023-02-09T04:52:51.917Z,42.60
2023-02-09T04:55:54.718Z,42.57
2023-02-09T04:59:15.239Z,42.54
2023-02-09T05:02:18.200Z,42.67
2023-02-09T05:05:21.019Z,42.69
2023-02-09T05:08:26.356Z,42.57
2023-02-09T05:11:29.211Z,42.57
2023-02-09T05:14:32.022Z,42.73
2023-02-09T05:17:35.038Z,42.60
2023-02-09T05:20:38.336Z,42.65
2023-02-09T05:23:42.965Z,42.63
2023-02-09T05:26:45.860Z,42.60
2023-02-09T05:29:48.750Z,42.69
2023-02-09T05:32:51.602Z,42.67
2023-02-09T05:35:55.880Z,42.63
2023-02-09T05:39:00.213Z,42.76
2023-02-09T05:42:18.280Z,42.66
2023-02-09T05:45:21.162Z,42.82
2023-02-09T05:48:23.992Z,42.76
2023-02-09T05:51:26.924Z,42.80
2023-02-09T05:54:31.431Z,42.73
2023-02-09T05:57:34.993Z,42.85
2023-02-09T06:00:38.043Z,42.81
2023-02-09T06:03:40.914Z,42.80
2023-02-09T06:06:44.095Z,42.83
2023-02-09T06:09:48.314Z,43.03
2023-02-09T06:12:51.261Z,42.98
2023-02-09T06:15:54.230Z,43.16
2023-02-09T06:18:57.179Z,43.00
2023-02-09T06:22:00.137Z,43.05
2023-02-09T06:25:04.447Z,43.05
2023-02-09T06:28:07.760Z,43.17
2023-02-09T06:31:11.577Z,43.10
2023-02-09T06:34:14.893Z,43.11
2023-02-09T06:37:17.707Z,43.06
2023-02-09T06:40:21.956Z,43.02
2023-02-09T06:43:25.330Z,43.09
2023-02-09T06:46:28.518Z,43.15
2023-02-09T06:49:31.528Z,43.02
2023-02-09T06:52:34.659Z,43.03
2023-02-09T06:55:39.003Z,43.06
2023-02-09T06:58:42.804Z,43.16
2023-02-09T07:01:45.714Z,43.17
2023-02-09T07:04:48.636Z,43.06
2023-02-09T07:07:51.490Z,43.07
2023-02-09T07:10:55.764Z,43.02
2023-02-09T07:13:58.685Z,43.14
2023-02-09T07:17:01.972Z,43.17
2023-02-09T07:20:05.612Z,43.12
2023-02-09T07:23:08.600Z,43.18
2023-02-09T07:26:16.102Z,43.15
2023-02-09T07:29:19.064Z,43.10
2023-02-09T07:32:22.839Z,43.10
2023-02-09T07:35:25.681Z,43.05
2023-02-09T07:38:28.628Z,43.09
2023-02-09T07:41:33.636Z,43.09
2023-02-09T07:44:36.424Z,43.12
2023-02-09T07:47:39.443Z,43.10
2023-02-09T07:50:43.024Z,43.14
2023-02-09T07:53:46.293Z,43.07
2023-02-09T07:56:50.438Z,43.07
2023-02-09T07:59:53.252Z,43.15
2023-02-09T08:02:56.259Z,43.24
2023-02-09T08:06:02.849Z,43.05
2023-02-09T08:09:06.326Z,43.08
2023-02-09T08:12:10.749Z,43.08
2023-02-09T08:15:14.028Z,42.92
2023-02-09T08:18:22.962Z,43.04
2023-02-09T08:21:27.371Z,43.25
2023-02-09T08:24:31.896Z,42.96
2023-02-09T08:27:37.387Z,43.09
2023-02-09T08:30:40.360Z,42.96
2023-02-09T08:33:44.036Z,42.99
2023-02-09T08:36:46.894Z,43.01
2023-02-09T08:39:49.847Z,43.01
2023-02-09T08:42:54.639Z,42.99
2023-02-09T08:46:03.631Z,42.49
2023-02-09T08:49:06.536Z,42.46
2023-02-09T08:52:09.619Z,42.54
2023-02-09T08:55:13.166Z,42.74
2023-02-09T08:58:17.343Z,43.06
2023-02-09T09:01:20.280Z,43.29
2023-02-09T09:04:23.232Z,43.15
2023-02-09T09:07:26.161Z,43.31
2023-02-09T09:10:29.394Z,43.23
2023-02-09T09:13:33.716Z,43.29
2023-02-09T09:16:36.690Z,43.21
2023-02-09T09:19:39.918Z,43.37
2023-02-09T09:22:42.765Z,43.33
2023-02-09T09:25:46.048Z,43.30
2023-02-09T09:28:52.112Z,43.25
2023-02-09T09:31:55.027Z,43.27
2023-02-09T09:35:00.086Z,43.26
2023-02-09T09:38:03.359Z,43.38
2023-02-09T09:41:17.128Z,43.34
2023-02-09T09:44:28.740Z,43.42
2023-02-09T09:47:37.346Z,43.21
2023-02-09T09:50:44.504Z,43.31
2023-02-09T09:53:51.731Z,43.31
2023-02-09T09:56:55.687Z,43.37
2023-02-09T10:00:18.609Z,43.53
2023-02-09T10:03:23.094Z,43.43
2023-02-09T10:06:26.152Z,43.49
2023-02-09T10:09:43.749Z,43.32
2023-02-09T10:12:50.564Z,43.40
2023-02-09T10:15:57.214Z,43.48
2023-02-09T10:19:02.027Z,43.55
2023-02-09T10:22:05.509Z,43.41
2023-02-09T10:25:39.188Z,43.53
2023-02-09T10:28:44.914Z,43.56
2023-02-09T10:31:54.992Z,43.55
2023-02-09T10:35:02.209Z,43.54
2023-02-09T10:38:05.421Z,43.54
2023-02-09T10:41:11.915Z,43.62
2023-02-09T10:44:20.126Z,43.48
2023-02-09T10:47:30.960Z,43.54
2023-02-09T10:50:33.993Z,43.48
2023-02-09T10:53:39.469Z,43.61
2023-02-09T10:56:46.223Z,43.53
2023-02-09T10:59:52.509Z,43.47
2023-02-09T11:03:01.706Z,43.55
2023-02-09T11:06:15.066Z,43.55
2023-02-09T11:09:21.365Z,43.60
2023-02-09T11:12:27.680Z,43.63
2023-02-09T11:15:43.345Z,43.58
2023-02-09T11:18:57.750Z,43.58
2023-02-09T11:22:07.439Z,43.62
2023-02-09T11:25:20.994Z,43.52
2023-02-09T11:28:34.686Z,43.57
2023-02-09T11:31:49.520Z,43.44
2023-02-09T11:35:03.487Z,43.40
2023-02-09T11:38:13.479Z,43.50
2023-02-09T11:41:41.939Z,43.56
2023-02-09T11:44:48.912Z,43.52
2023-02-09T11:48:00.283Z,43.45
2023-02-09T11:51:09.109Z,43.44
2023-02-09T11:54:17.171Z,43.48
2023-02-09T11:57:31.447Z,43.53
2023-02-09T12:00:53.180Z,43.60
2023-02-09T12:04:07.296Z,43.45
2023-02-09T12:07:21.174Z,43.50
2023-02-09T12:10:29.884Z,43.47
2023-02-09T12:13:43.339Z,43.57
2023-02-09T12:16:55.975Z,43.55
2023-02-09T12:20:01.721Z,43.56
2023-02-09T12:23:16.959Z,43.55
2023-02-09T12:26:44.505Z,43.50
2023-02-09T12:29:47.352Z,43.47
2023-02-09T12:32:50.188Z,43.55
2023-02-09T12:36:00.632Z,43.53
2023-02-09T12:39:24.330Z,43.58
2023-02-09T12:42:29.245Z,43.68
2023-02-09T12:45:36.003Z,43.54
2023-02-09T12:48:49.996Z,43.54
2023-02-09T12:52:07.149Z,43.44
2023-02-09T12:55:18.672Z,43.42
2023-02-09T12:58:54.719Z,43.58
2023-02-09T13:02:13.207Z,43.47
2023-02-09T13:05:20.190Z,43.50
2023-02-09T13:08:31.753Z,43.43
2023-02-09T13:11:49.275Z,43.59
2023-02-09T13:14:52.561Z,43.47
2023-02-09T13:18:07.956Z,43.49
2023-02-09T13:21:28.384Z,43.44
2023-02-09T13:24:42.759Z,43.45
2023-02-09T13:27:49.312Z,43.57
2023-02-09T13:30:52.164Z,43.55
2023-02-09T13:34:01.126Z,43.57
2023-02-09T13:37:15.420Z,43.64
2023-02-09T13:40:23.366Z,43.63
2023-02-09T13:43:30.490Z,43.68
2023-02-09T13:46:35.392Z,43.74
2023-02-09T13:49:38.466Z,43.89
2023-02-09T13:52:41.330Z,43.72
2023-02-09T13:55:48.702Z,43.71
2023-02-09T13:58:54.361Z,43.92
2023-02-09T14:01:57.323Z,43.87
2023-02-09T14:05:04.416Z,43.79
2023-02-09T14:08:07.969Z,43.85
2023-02-09T14:11:33.229Z,43.85
2023-02-09T14:15:07.129Z,43.76
2023-02-09T14:18:42.419Z,43.92
2023-02-09T14:21:46.393Z,43.92
2023-02-09T14:24:49.406Z,43.94
2023-02-09T14:27:52.912Z,43.94
2023-02-09T14:30:57.290Z,43.93
2023-02-09T14:34:00.304Z,44.07
2023-02-09T14:37:25.432Z,43.99
2023-02-09T14:40:31.968Z,44.16
2023-02-09T14:43:34.850Z,44.45
2023-02-09T14:46:53.408Z,44.49
2023-02-09T14:49:57.899Z,44.36
2023-02-09T14:53:07.004Z,44.51
2023-02-09T14:56:19.236Z,44.40
2023-02-09T14:59:23.315Z,44.32
2023-02-09T15:02:29.063Z,44.44
2023-02-09T15:05:32.059Z,44.43
2023-02-09T15:08:39.001Z,44.41
2023-02-09T15:11:59.442Z,44.38
2023-02-09T15:15:03.114Z,44.43
2023-02-09T15:18:07.947Z,44.63
2023-02-09T15:21:10.777Z,44.67
2023-02-09T15:24:13.759Z,44.46
2023-02-09T15:27:24.949Z,44.50
2023-02-09T15:30:31.625Z,44.41
2023-02-09T15:33:35.897Z,44.48
2023-02-09T15:36:39.313Z,44.57
2023-02-09T15:39:42.101Z,44.55
2023-02-09T15:43:02.687Z,44.41
2023-02-09T15:46:23.700Z,44.43
2023-02-09T15:49:27.960Z,44.47
2023-02-09T15:52:30.934Z,44.47
2023-02-09T15:55:35.349Z,44.62
2023-02-09T15:58:41.732Z,44.55
2023-02-09T16:01:44.926Z,44.51
2023-02-09T16:04:49.476Z,44.44
2023-02-09T16:07:53.864Z,44.50
2023-02-09T16:10:57.416Z,44.50
2023-02-09T16:14:01.486Z,44.71
2023-02-09T16:17:04.559Z,44.45
2023-02-09T16:20:11.239Z,44.60
2023-02-09T16:23:20.979Z,44.59
2023-02-09T16:26:24.526Z,44.46
2023-02-09T16:29:27.587Z,44.49
2023-02-09T16:32:30.556Z,44.55
2023-02-09T16:35:35.280Z,44.53
2023-02-09T16:38:38.728Z,44.57
2023-02-09T16:41:53.746Z,44.32
2023-02-09T16:44:57.513Z,44.65
2023-02-09T16:48:00.395Z,44.39
2023-02-09T16:51:05.737Z,44.49
2023-02-09T16:54:08.544Z,44.63
2023-02-09T16:57:17.223Z,44.75
2023-02-09T17:00:20.387Z,44.71
2023-02-09T17:03:29.874Z,44.59
2023-02-09T17:06:34.344Z,44.64
2023-02-09T17:09:37.164Z,44.76
2023-02-09T17:12:40.219Z,44.77
2023-02-09T17:15:46.520Z,44.69
2023-02-09T17:18:52.060Z,44.71
2023-02-09T17:22:00.282Z,44.70
2023-02-09T17:25:03.199Z,44.78
2023-02-09T17:28:06.112Z,44.83
2023-02-09T17:31:17.705Z,44.80
2023-02-09T17:34:22.020Z,44.96
2023-02-09T17:37:26.175Z,44.91
2023-02-09T17:40:28.934Z,45.03
2023-02-09T17:43:31.732Z,44.89
2023-02-09T17:46:34.688Z,44.95
2023-02-09T17:49:37.644Z,45.03
2023-02-09T17:52:41.882Z,44.95
2023-02-09T17:55:45.581Z,44.98
2023-02-09T17:58:48.603Z,44.87
2023-02-09T18:01:51.562Z,44.94
2023-02-09T18:04:54.342Z,44.94
2023-02-09T18:07:58.519Z,44.88
2023-02-09T18:11:01.454Z,44.97
2023-02-09T18:14:04.376Z,44.79
2023-02-09T18:17:07.340Z,44.98
2023-02-09T18:20:16.215Z,44.91
2023-02-09T18:23:20.388Z,44.77
2023-02-09T18:26:23.220Z,44.74
2023-02-09T18:29:29.712Z,44.79
2023-02-09T18:32:32.732Z,44.79
2023-02-09T18:35:38.237Z,44.77
2023-02-09T18:38:43.276Z,44.84
2023-02-09T18:41:48.382Z,44.85
2023-02-09T18:44:51.670Z,44.89
2023-02-09T18:47:54.500Z,44.86
2023-02-09T18:50:57.373Z,44.76
2023-02-09T18:54:01.931Z,44.67
2023-02-09T18:57:04.870Z,44.75
2023-02-09T19:00:09.417Z,44.81
2023-02-09T19:03:16.980Z,44.72
2023-02-09T19:06:21.296Z,44.59
2023-02-09T19:09:25.538Z,44.70
2023-02-09T19:12:28.563Z,44.71
2023-02-09T19:15:32.337Z,44.67
2023-02-09T19:18:35.356Z,44.72
2023-02-09T19:21:38.151Z,44.67
2023-02-09T19:24:42.927Z,44.70
2023-02-09T19:27:45.770Z,44.54
2023-02-09T19:30:48.978Z,44.61
2023-02-09T19:33:55.693Z,44.56
2023-02-09T19:36:58.543Z,44.57
2023-02-09T19:40:07.277Z,44.55
2023-02-09T19:43:12.159Z,44.61
2023-02-09T19:46:15.075Z,44.48
2023-02-09T19:49:17.950Z,44.58
2023-02-09T19:52:20.764Z,44.48
2023-02-09T19:55:24.918Z,44.60
2023-02-09T19:58:27.706Z,44.64
2023-02-09T20:01:31.577Z,44.54
2023-02-09T20:04:35.349Z,44.44
2023-02-09T20:07:38.168Z,44.56
2023-02-09T20:10:44.057Z,44.43
2023-02-09T20:13:49.791Z,44.46
2023-02-09T20:16:53.829Z,44.50
2023-02-09T20:19:56.671Z,44.42
2023-02-09T20:22:59.481Z,44.48
2023-02-09T20:26:10.575Z,44.53
2023-02-09T20:29:13.899Z,44.41
2023-02-09T20:32:17.070Z,44.53
2023-02-09T20:35:20.019Z,44.38
2023-02-09T20:38:22.864Z,44.55
2023-02-09T20:41:27.031Z,44.47
2023-02-09T20:44:47.609Z,44.52
2023-02-09T20:47:50.618Z,44.49
2023-02-09T20:50:54.492Z,44.36
2023-02-09T20:53:57.315Z,44.46
2023-02-09T20:57:01.514Z,44.28
2023-02-09T21:00:09.054Z,44.46
2023-02-09T21:03:12.382Z,44.41
2023-02-09T21:06:16.123Z,44.34
2023-02-09T21:09:25.031Z,44.39
2023-02-09T21:12:29.335Z,44.54
2023-02-09T21:15:32.365Z,44.40
2023-02-09T21:18:36.166Z,44.38
2023-02-09T21:21:39.680Z,44.49
2023-02-09T21:24:42.982Z,44.46
2023-02-09T21:27:47.275Z,44.48
2023-02-09T21:30:50.238Z,44.46
2023-02-09T21:33:53.425Z,44.53
2023-02-09T21:36:56.532Z,44.56
2023-02-09T21:40:02.880Z,44.43
2023-02-09T21:43:07.407Z,44.54
2023-02-09T21:46:10.960Z,44.43
2023-02-09T21:49:14.270Z,44.49
2023-02-09T21:52:17.159Z,44.46
2023-02-09T21:55:20.015Z,44.44
2023-02-09T21:58:24.341Z,44.60
2023-02-09T22:01:27.682Z,44.63
2023-02-09T22:04:30.775Z,44.61
2023-02-09T22:07:35.395Z,44.60
2023-02-09T22:10:38.275Z,44.51
2023-02-09T22:13:42.504Z,44.64
2023-02-09T22:16:46.778Z,44.56
2023-02-09T22:19:49.755Z,44.67
2023-02-09T22:22:53.096Z,44.64
2023-02-09T22:25:59.812Z,44.64
2023-02-09T22:29:04.065Z,44.56
2023-02-09T22:32:07.002Z,44.60
2023-02-09T22:35:10.059Z,44.65
2023-02-09T22:38:13.004Z,44.56
2023-02-09T22:41:22.296Z,44.67
2023-02-09T22:44:28.003Z,44.79
2023-02-09T22:47:30.971Z,44.77
2023-02-09T22:50:33.828Z,44.43
2023-02-09T22:53:36.752Z,44.46
2023-02-09T22:56:39.624Z,44.48
2023-02-09T22:59:43.965Z,44.43
2023-02-09T23:02:47.002Z,44.55
2023-02-09T23:05:51.089Z,44.62
2023-02-09T23:08:54.617Z,44.60
2023-02-09T23:11:57.551Z,44.62
2023-02-09T23:15:01.826Z,44.61
2023-02-09T23:18:04.799Z,44.58
2023-02-09T23:21:09.140Z,44.68
2023-02-09T23:24:13.322Z,44.64
2023-02-09T23:27:16.152Z,44.50
2023-02-09T23:30:20.581Z,44.56
2023-02-09T23:33:23.864Z,44.54
2023-02-09T23:36:28.791Z,44.62
2023-02-09T23:39:32.183Z,44.68
2023-02-09T23:42:35.096Z,44.60
2023-02-09T23:45:39.364Z,44.54
2023-02-09T23:48:42.264Z,44.49
2023-02-09T23:51:45.379Z,44.46
2023-02-09T23:54:48.356Z,44.54
2023-02-09T23:57:51.171Z,44.58
